Jeffersontown, Kentucky
Current Conditions -  °F | °C
As of 4:53 AM on Saturday 25 Oct 2014 (Local Time) from KLOU Reporting Station
Haze Haze  
Wind Chill: 47°   Ceiling: Unl
Heat Index: 47°   Visibility: 6mi
Dew Point: 45°   Wind: 0mph
Humidity: 93%   Direction: NA
Pressure: 30.04"   Gusts: NA
Location:  38.19°N, 85.57°W
Report Text: KLOU 250853Z AUTO 00000KT 6SM BR FEW090 08/07 A3004 RMK AO2 SLP171 T00830072 58005
Loading
Personal Weather Stations






























Interactive Weather Map
Tropical Storm Tracking
New forecast layout! Learn more

10-Day Weather Forecast

Advertisements
Track Severe Weather on mobile